createdAt,value
2018-04-08T00:01:17.807Z,84.90
2018-04-08T00:03:46.890Z,84.90
2018-04-08T00:06:15.001Z,84.90
2018-04-08T00:08:43.314Z,84.80
2018-04-08T00:11:11.438Z,84.90
2018-04-08T00:13:39.557Z,84.70
2018-04-08T00:16:07.736Z,84.30
2018-04-08T00:18:35.870Z,84.20
2018-04-08T00:21:04.908Z,82.60
2018-04-08T00:23:33.055Z,82.60
2018-04-08T00:26:01.161Z,82.30
2018-04-08T00:28:29.279Z,81.80
2018-04-08T00:30:57.543Z,81.40
2018-04-08T00:33:26.441Z,80.80
2018-04-08T00:35:54.624Z,80.80
2018-04-08T00:38:22.760Z,81.30
2018-04-08T00:40:50.873Z,81.20
2018-04-08T00:43:19.061Z,81.40
2018-04-08T00:45:47.214Z,81.80
2018-04-08T00:48:15.393Z,82.30
2018-04-08T00:50:43.538Z,82.90
2018-04-08T00:53:11.842Z,83.40
2018-04-08T00:55:39.970Z,84.00
2018-04-08T00:58:08.104Z,84.40
2018-04-08T01:00:36.267Z,84.90
2018-04-08T01:03:04.402Z,85.30
2018-04-08T01:05:32.507Z,85.90
2018-04-08T01:08:00.668Z,86.40
2018-04-08T01:10:28.814Z,86.40
2018-04-08T01:12:57.084Z,86.70
2018-04-08T01:15:26.023Z,86.90
2018-04-08T01:17:54.160Z,86.90
2018-04-08T01:20:22.308Z,87.00
2018-04-08T01:22:50.461Z,87.20
2018-04-08T01:25:18.571Z,87.20
2018-04-08T01:27:46.834Z,87.10
2018-04-08T01:30:14.980Z,86.90
2018-04-08T01:32:43.074Z,87.00
2018-04-08T01:35:11.193Z,86.90
2018-04-08T01:37:40.891Z,86.90
2018-04-08T01:40:09.058Z,86.90
2018-04-08T01:42:37.241Z,86.80
2018-04-08T01:45:05.391Z,87.10
2018-04-08T01:47:33.542Z,87.50
2018-04-08T01:50:01.719Z,88.00
2018-04-08T01:52:29.832Z,88.30
2018-04-08T01:54:58.743Z,89.20
2018-04-08T01:57:27.641Z,89.30
2018-04-08T01:59:55.821Z,89.30
2018-04-08T02:02:24.023Z,89.60
2018-04-08T02:04:52.154Z,90.00
2018-04-08T02:07:21.129Z,90.10
2018-04-08T02:09:49.326Z,90.00
2018-04-08T02:12:17.443Z,90.00
2018-04-08T02:14:45.601Z,90.10
2018-04-08T02:17:14.698Z,90.30
2018-04-08T02:19:42.802Z,90.20
2018-04-08T02:22:10.986Z,90.40
2018-04-08T02:24:39.104Z,90.50
2018-04-08T02:27:07.223Z,90.40
2018-04-08T02:29:35.343Z,90.30
2018-04-08T02:32:03.519Z,90.40
2018-04-08T02:34:31.645Z,90.40
2018-04-08T02:36:59.806Z,90.60
2018-04-08T02:39:27.954Z,90.60
2018-04-08T02:41:56.063Z,90.60
2018-04-08T02:44:24.224Z,90.70
2018-04-08T02:46:52.674Z,90.90
2018-04-08T02:49:20.791Z,91.10
2018-04-08T02:51:49.115Z,91.10
2018-04-08T02:54:17.223Z,90.90
2018-04-08T02:56:45.518Z,91.00
2018-04-08T02:59:13.657Z,90.90
2018-04-08T03:01:41.878Z,91.00
2018-04-08T03:04:10.145Z,91.20
2018-04-08T03:06:39.076Z,91.40
2018-04-08T03:09:07.214Z,91.40
2018-04-08T03:11:35.692Z,91.40
2018-04-08T03:14:03.825Z,91.40
2018-04-08T03:16:32.322Z,91.10
2018-04-08T03:19:00.592Z,91.00
2018-04-08T03:21:28.909Z,90.80
2018-04-08T03:23:57.794Z,90.60
2018-04-08T03:26:26.065Z,90.60
2018-04-08T03:28:54.501Z,90.60
2018-04-08T03:31:22.614Z,90.60
2018-04-08T03:33:50.778Z,90.50
2018-04-08T03:36:18.930Z,90.50
2018-04-08T03:38:47.071Z,90.30
2018-04-08T03:41:15.199Z,90.30
2018-04-08T03:43:43.521Z,90.30
2018-04-08T03:46:11.681Z,90.40
2018-04-08T03:48:40.643Z,90.50
2018-04-08T03:51:09.408Z,90.50
2018-04-08T03:53:37.727Z,90.70
2018-04-08T03:56:05.834Z,90.80
2018-04-08T03:58:33.990Z,90.90
2018-04-08T04:01:02.145Z,91.10
2018-04-08T04:03:30.274Z,91.30
2018-04-08T04:05:58.471Z,91.40
2018-04-08T04:08:26.665Z,91.40
2018-04-08T04:10:54.964Z,91.50
2018-04-08T04:13:23.983Z,91.70
2018-04-08T04:15:52.327Z,91.70
2018-04-08T04:18:32.216Z,91.90
2018-04-08T04:21:12.166Z,92.00
2018-04-08T04:23:52.092Z,92.10
2018-04-08T04:26:30.713Z,92.20
2018-04-08T04:28:59.617Z,92.20
2018-04-08T04:31:27.736Z,92.40
2018-04-08T04:33:56.750Z,92.60
2018-04-08T04:36:25.832Z,92.60
2018-04-08T04:38:53.954Z,92.60
2018-04-08T04:41:22.202Z,92.60
2018-04-08T04:43:51.049Z,92.80
2018-04-08T04:46:19.375Z,92.90
2018-04-08T04:48:48.474Z,92.90
2018-04-08T04:51:16.668Z,92.90
2018-04-08T04:53:44.915Z,92.80
2018-04-08T04:56:13.782Z,92.90
2018-04-08T04:58:43.214Z,92.90
2018-04-08T05:01:11.612Z,92.90
2018-04-08T05:03:39.748Z,92.90
2018-04-08T05:06:08.144Z,92.90
2018-04-08T05:08:36.981Z,92.80
2018-04-08T05:11:05.109Z,92.90
2018-04-08T05:13:33.727Z,92.90
2018-04-08T05:16:02.561Z,93.00
2018-04-08T05:18:31.376Z,93.10
2018-04-08T05:20:59.530Z,93.20
2018-04-08T05:23:27.652Z,93.20
2018-04-08T05:25:55.851Z,93.50
2018-04-08T05:28:24.166Z,93.00
2018-04-08T05:30:52.369Z,92.70
2018-04-08T05:33:20.556Z,92.40
2018-04-08T05:35:49.521Z,91.90
2018-04-08T05:38:18.262Z,91.90
2018-04-08T05:40:46.453Z,91.70
2018-04-08T05:43:15.416Z,91.40
2018-04-08T05:45:43.533Z,91.40
2018-04-08T05:48:11.773Z,91.10
2018-04-08T05:50:40.088Z,90.80
2018-04-08T05:53:08.261Z,90.60
2018-04-08T05:55:36.388Z,90.20
2018-04-08T05:58:04.657Z,90.30
2018-04-08T06:00:32.782Z,90.20
2018-04-08T06:03:00.945Z,90.00
2018-04-08T06:05:29.767Z,89.60
2018-04-08T06:07:57.907Z,89.40
2018-04-08T06:10:26.814Z,89.60
2018-04-08T06:12:54.964Z,89.60
2018-04-08T06:15:23.856Z,89.10
2018-04-08T06:17:52.928Z,88.80
2018-04-08T06:20:21.145Z,88.80
2018-04-08T06:22:49.269Z,88.20
2018-04-08T06:25:18.908Z,87.00
2018-04-08T06:27:47.930Z,86.30
2018-04-08T06:30:16.141Z,86.20
2018-04-08T06:32:44.219Z,85.40
2018-04-08T06:35:12.419Z,84.40
2018-04-08T06:37:40.572Z,83.30
2018-04-08T06:40:09.395Z,82.70
2018-04-08T06:42:38.310Z,80.70
2018-04-08T06:45:07.248Z,79.30
2018-04-08T06:47:35.407Z,79.30
2018-04-08T06:50:03.562Z,78.90
2018-04-08T06:52:31.688Z,79.90
2018-04-08T06:54:59.992Z,78.90
2018-04-08T06:57:28.152Z,79.00
2018-04-08T06:59:57.094Z,78.80
2018-04-08T07:02:25.255Z,78.80
2018-04-08T07:04:53.408Z,78.40
2018-04-08T07:07:21.632Z,78.10
2018-04-08T07:09:49.763Z,78.20
2018-04-08T07:12:18.035Z,78.10
2018-04-08T07:14:46.158Z,77.90
2018-04-08T07:17:14.283Z,78.00
2018-04-08T07:19:42.424Z,78.30
2018-04-08T07:22:11.302Z,77.80
2018-04-08T07:24:40.277Z,77.10
2018-04-08T07:27:09.073Z,77.00
2018-04-08T07:29:37.188Z,76.60
2018-04-08T07:32:05.442Z,76.00
2018-04-08T07:34:34.358Z,75.00
2018-04-08T07:37:02.478Z,75.00
2018-04-08T07:39:30.612Z,74.50
2018-04-08T07:41:58.887Z,74.30
2018-04-08T07:44:27.029Z,73.80
2018-04-08T07:46:55.170Z,73.50
2018-04-08T07:49:23.337Z,72.70
2018-04-08T07:51:51.478Z,72.60
2018-04-08T07:54:20.093Z,72.70
2018-04-08T07:56:48.240Z,72.30
2018-04-08T07:59:16.361Z,72.20
2018-04-08T08:01:44.521Z,72.20
2018-04-08T08:04:14.195Z,71.80
2018-04-08T08:06:42.331Z,71.70
2018-04-08T08:09:11.319Z,70.00
2018-04-08T08:11:40.237Z,69.80
2018-04-08T08:14:08.420Z,69.70
2018-04-08T08:16:36.663Z,68.80
2018-04-08T08:19:05.566Z,68.70
2018-04-08T08:21:33.701Z,68.70
2018-04-08T08:24:01.820Z,68.30
2018-04-08T08:26:30.023Z,68.90
2018-04-08T08:28:58.254Z,69.70
2018-04-08T08:31:26.435Z,69.10
2018-04-08T08:33:55.335Z,69.60
2018-04-08T08:36:23.582Z,69.60
2018-04-08T08:38:51.715Z,69.10
2018-04-08T08:41:19.866Z,69.00
2018-04-08T08:43:48.109Z,68.90
2018-04-08T08:46:17.001Z,68.30
2018-04-08T08:48:45.923Z,68.80
2018-04-08T08:51:14.196Z,68.60
2018-04-08T08:53:42.476Z,68.00
2018-04-08T08:56:10.804Z,67.80
2018-04-08T08:58:38.918Z,68.50
2018-04-08T09:01:07.063Z,68.60
2018-04-08T09:03:35.289Z,67.80
2018-04-08T09:06:04.232Z,67.60
2018-04-08T09:08:33.131Z,68.10
2018-04-08T09:11:02.019Z,66.70
2018-04-08T09:13:30.911Z,65.40
2018-04-08T09:15:59.807Z,64.30
2018-04-08T09:18:29.963Z,63.00
2018-04-08T09:21:14.883Z,62.90
2018-04-08T09:23:58.798Z,63.60
2018-04-08T09:26:26.924Z,63.60
2018-04-08T09:28:55.043Z,63.60
2018-04-08T09:31:23.194Z,62.40
2018-04-08T09:33:51.312Z,62.10
2018-04-08T09:36:20.334Z,60.90
2018-04-08T09:38:48.574Z,60.90
2018-04-08T09:41:16.696Z,60.50
2018-04-08T09:43:44.839Z,60.00
2018-04-08T09:46:13.764Z,59.50
2018-04-08T09:48:41.878Z,59.50
2018-04-08T09:51:10.058Z,59.50
2018-04-08T09:53:38.331Z,59.80
2018-04-08T09:56:06.472Z,57.40
2018-04-08T09:58:35.111Z,58.50
2018-04-08T10:01:18.935Z,57.60
2018-04-08T10:03:48.539Z,57.60
2018-04-08T10:06:17.428Z,58.10
2018-04-08T10:08:45.601Z,57.90
2018-04-08T10:11:13.728Z,57.30
2018-04-08T10:13:41.850Z,57.40
2018-04-08T10:16:10.147Z,56.60
2018-04-08T10:18:38.459Z,55.10
2018-04-08T10:21:06.853Z,53.60
2018-04-08T10:23:35.015Z,53.50
2018-04-08T10:26:03.250Z,53.60
2018-04-08T10:28:32.135Z,54.20
2018-04-08T10:31:01.118Z,52.20
2018-04-08T10:33:30.001Z,52.90
2018-04-08T10:35:58.179Z,52.80
2018-04-08T10:38:26.454Z,52.00
2018-04-08T10:40:54.585Z,52.30
2018-04-08T10:43:22.801Z,52.10
2018-04-08T10:45:51.255Z,50.90
2018-04-08T10:48:19.373Z,50.00
2018-04-08T10:50:48.246Z,50.10
2018-04-08T10:53:16.424Z,50.00
2018-04-08T10:55:44.557Z,48.20
2018-04-08T10:58:12.840Z,49.20
2018-04-08T11:00:40.936Z,49.40
2018-04-08T11:03:09.073Z,47.50
2018-04-08T11:05:37.184Z,47.50
2018-04-08T11:08:05.320Z,47.10
2018-04-08T11:10:33.660Z,46.50
2018-04-08T11:13:02.531Z,45.70
2018-04-08T11:15:31.396Z,45.70
2018-04-08T11:17:59.525Z,45.70
2018-04-08T11:20:27.655Z,44.90
2018-04-08T11:22:55.779Z,45.30
2018-04-08T11:25:23.912Z,45.00
2018-04-08T11:27:52.839Z,44.70
2018-04-08T11:30:21.030Z,44.60
2018-04-08T11:32:49.173Z,44.10
2018-04-08T11:35:17.317Z,44.90
2018-04-08T11:37:45.475Z,45.00
2018-04-08T11:40:13.601Z,44.50
2018-04-08T11:42:41.755Z,44.40
2018-04-08T11:45:10.064Z,44.00
2018-04-08T11:47:38.233Z,44.70
2018-04-08T11:50:06.380Z,44.50
2018-04-08T11:52:34.504Z,44.10
2018-04-08T11:55:02.723Z,43.40
2018-04-08T11:57:31.435Z,42.90
2018-04-08T11:59:59.576Z,42.90
2018-04-08T12:02:28.840Z,41.40
2018-04-08T12:04:56.984Z,41.30
2018-04-08T12:07:25.157Z,40.90
2018-04-08T12:09:54.115Z,39.40
2018-04-08T12:12:23.003Z,39.00
2018-04-08T12:14:51.908Z,38.90
2018-04-08T12:17:20.884Z,39.40
2018-04-08T12:19:49.002Z,39.40
2018-04-08T12:22:17.125Z,39.40
2018-04-08T12:24:45.248Z,39.50
2018-04-08T12:27:15.271Z,38.90
2018-04-08T12:29:43.443Z,39.30
2018-04-08T12:32:11.712Z,38.70
2018-04-08T12:34:39.863Z,38.70
2018-04-08T12:37:08.788Z,37.80
2018-04-08T12:39:37.013Z,37.90
2018-04-08T12:42:05.157Z,38.40
2018-04-08T12:44:33.322Z,35.90
2018-04-08T12:47:01.445Z,37.10
2018-04-08T12:49:30.321Z,36.70
2018-04-08T12:51:59.270Z,36.50
2018-04-08T12:54:27.482Z,36.30
2018-04-08T12:56:55.618Z,37.10
2018-04-08T12:59:23.968Z,36.30
2018-04-08T13:01:52.300Z,36.90
2018-04-08T13:04:20.412Z,36.60
2018-04-08T13:06:49.309Z,35.60
2018-04-08T13:09:17.437Z,35.60
2018-04-08T13:11:45.550Z,36.00
2018-04-08T13:14:14.422Z,37.00
2018-04-08T13:16:43.342Z,36.30
2018-04-08T13:19:11.446Z,35.90
2018-04-08T13:21:39.593Z,36.10
2018-04-08T13:24:07.725Z,36.10
2018-04-08T13:26:36.124Z,36.30
2018-04-08T13:29:05.027Z,35.90
2018-04-08T13:31:33.136Z,35.90
2018-04-08T13:34:01.277Z,36.00
2018-04-08T13:36:29.437Z,33.50
2018-04-08T13:38:57.572Z,34.70
2018-04-08T13:41:25.695Z,34.80
2018-04-08T13:43:53.829Z,35.10
2018-04-08T13:46:22.138Z,34.50
2018-04-08T13:48:50.285Z,34.80
2018-04-08T13:51:18.629Z,34.80
2018-04-08T13:53:46.739Z,35.00
2018-04-08T13:56:14.911Z,34.40
2018-04-08T13:58:43.830Z,35.50
2018-04-08T14:01:12.558Z,35.40
2018-04-08T14:03:40.651Z,36.50
2018-04-08T14:06:09.060Z,34.40
2018-04-08T14:08:37.967Z,33.00
2018-04-08T14:11:06.093Z,33.00
2018-04-08T14:13:34.254Z,33.20
2018-04-08T14:16:02.414Z,35.00
2018-04-08T14:18:31.102Z,33.30
2018-04-08T14:20:59.440Z,33.40
2018-04-08T14:23:27.652Z,31.40
2018-04-08T14:25:55.843Z,32.70
2018-04-08T14:28:24.011Z,33.10
2018-04-08T14:30:52.308Z,32.00
2018-04-08T14:33:20.567Z,34.00
2018-04-08T14:35:48.951Z,32.80
2018-04-08T14:38:17.073Z,31.00
2018-04-08T14:40:45.215Z,30.10
2018-04-08T14:43:17.347Z,29.80
2018-04-08T14:45:45.479Z,30.50
2018-04-08T14:48:14.577Z,32.10
2018-04-08T14:50:43.468Z,30.50
2018-04-08T14:53:11.582Z,30.50
2018-04-08T14:55:39.695Z,29.60
2018-04-08T14:58:07.995Z,30.00
2018-04-08T15:00:36.118Z,28.80
2018-04-08T15:03:04.225Z,28.10
2018-04-08T15:05:33.106Z,28.20
2018-04-08T15:08:02.044Z,28.20
2018-04-08T15:10:30.250Z,28.20
2018-04-08T15:12:59.331Z,28.70
2018-04-08T15:15:27.462Z,28.70
2018-04-08T15:17:55.584Z,28.30
2018-04-08T15:20:23.869Z,28.50
2018-04-08T15:22:51.991Z,29.00
2018-04-08T15:25:20.106Z,28.60
2018-04-08T15:27:48.263Z,28.80
2018-04-08T15:30:16.367Z,29.10
2018-04-08T15:32:44.494Z,29.20
2018-04-08T15:35:12.801Z,28.00
2018-04-08T15:37:40.900Z,27.70
2018-04-08T15:40:09.162Z,26.80
2018-04-08T15:42:37.718Z,27.20
2018-04-08T15:45:05.885Z,26.90
2018-04-08T15:47:33.998Z,26.80
2018-04-08T15:50:02.915Z,26.70
2018-04-08T15:52:32.432Z,27.20
2018-04-08T15:55:00.653Z,27.10
2018-04-08T15:57:29.282Z,27.10
2018-04-08T15:59:57.456Z,27.40
2018-04-08T16:02:25.629Z,27.80
2018-04-08T16:04:54.535Z,28.30
2018-04-08T16:07:22.730Z,28.20
2018-04-08T16:09:50.905Z,29.20
2018-04-08T16:12:19.097Z,29.90
2018-04-08T16:14:49.026Z,30.70
2018-04-08T16:17:17.274Z,30.60
2018-04-08T16:19:45.444Z,30.60
2018-04-08T16:22:13.587Z,29.80
2018-04-08T16:24:41.707Z,29.30
2018-04-08T16:27:09.832Z,28.40
2018-04-08T16:29:38.149Z,28.30
2018-04-08T16:32:06.362Z,27.90
2018-04-08T16:34:35.272Z,27.70
2018-04-08T16:37:03.407Z,27.70
2018-04-08T16:39:31.512Z,26.80
2018-04-08T16:42:00.527Z,26.50
2018-04-08T16:44:28.751Z,26.40
2018-04-08T16:49:43.622Z,26.50
2018-04-08T16:52:12.493Z,26.50
2018-04-08T16:54:40.590Z,26.10
2018-04-08T16:57:08.728Z,26.20
2018-04-08T16:59:36.908Z,26.30
2018-04-08T17:02:05.035Z,26.90
2018-04-08T17:04:33.947Z,27.20
2018-04-08T17:07:02.227Z,27.20
2018-04-08T17:09:31.179Z,26.90
2018-04-08T17:11:59.430Z,26.90
2018-04-08T17:14:27.674Z,27.50
2018-04-08T17:16:55.807Z,26.40
2018-04-08T17:19:24.696Z,26.80
2018-04-08T17:21:53.600Z,27.10
2018-04-08T17:24:21.772Z,27.10
2018-04-08T17:26:51.242Z,28.40
2018-04-08T17:29:19.378Z,28.40
2018-04-08T17:31:47.594Z,28.80
2018-04-08T17:34:16.493Z,29.70
2018-04-08T17:36:44.621Z,29.70
2018-04-08T17:39:12.752Z,30.30
2018-04-08T17:41:42.969Z,31.00
2018-04-08T17:44:11.842Z,31.00
2018-04-08T17:46:40.773Z,33.00
2018-04-08T17:49:09.711Z,34.10
2018-04-08T17:51:37.866Z,34.00
2018-04-08T17:54:06.208Z,35.40
2018-04-08T17:56:35.141Z,36.50
2018-04-08T17:59:03.396Z,36.30
2018-04-08T18:01:31.651Z,37.30
2018-04-08T18:04:00.671Z,38.30
2018-04-08T18:06:30.593Z,38.60
2018-04-08T18:08:58.896Z,38.20
2018-04-08T18:11:27.003Z,39.00
2018-04-08T18:13:55.939Z,40.10
2018-04-08T18:16:24.067Z,40.10
2018-04-08T18:18:52.260Z,42.40
2018-04-08T18:21:20.398Z,42.80
2018-04-08T18:23:48.710Z,43.70
2018-04-08T18:26:16.830Z,44.20
2018-04-08T18:28:45.061Z,44.00
2018-04-08T18:31:13.341Z,44.00
2018-04-08T18:33:41.597Z,44.70
2018-04-08T18:36:10.539Z,46.80
2018-04-08T18:38:39.450Z,46.20
2018-04-08T18:41:07.565Z,46.20
2018-04-08T18:43:36.658Z,53.00
2018-04-08T18:46:04.838Z,52.90
2018-04-08T18:48:33.054Z,53.90
2018-04-08T18:51:01.388Z,56.10
2018-04-08T18:53:29.548Z,57.50
2018-04-08T18:55:58.440Z,59.80
2018-04-08T18:58:27.344Z,60.70
2018-04-08T19:00:55.477Z,60.50
2018-04-08T19:03:23.624Z,61.60
2018-04-08T19:05:51.763Z,62.20
2018-04-08T19:08:20.130Z,62.50
2018-04-08T19:10:48.997Z,63.40
2018-04-08T19:13:17.156Z,63.40
2018-04-08T19:15:45.902Z,63.90
2018-04-08T19:18:14.004Z,64.00
2018-04-08T19:20:45.736Z,65.00
2018-04-08T19:23:13.950Z,65.00
2018-04-08T19:25:42.084Z,66.10
2018-04-08T19:28:17.446Z,66.90
2018-04-08T19:30:45.681Z,67.40
2018-04-08T19:33:14.568Z,69.70
2018-04-08T19:35:42.725Z,69.70
2018-04-08T19:38:11.735Z,70.50
2018-04-08T19:40:39.866Z,70.50
2018-04-08T19:43:08.116Z,71.60
2018-04-08T19:45:36.268Z,72.10
2018-04-08T19:48:04.386Z,73.00
2018-04-08T19:50:32.644Z,73.90
2018-04-08T19:53:00.863Z,74.70
2018-04-08T19:55:29.137Z,75.50
2018-04-08T19:57:57.316Z,76.20
2018-04-08T20:00:26.207Z,76.90
2018-04-08T20:02:55.227Z,76.80
2018-04-08T20:05:23.409Z,76.70
2018-04-08T20:07:51.599Z,77.30
2018-04-08T20:10:19.972Z,77.90
2018-04-08T20:12:48.111Z,78.40
2018-04-08T20:15:16.413Z,78.90
2018-04-08T20:17:44.548Z,79.20
2018-04-08T20:20:12.691Z,79.40
2018-04-08T20:22:40.834Z,80.10
2018-04-08T20:25:08.958Z,80.70
2018-04-08T20:27:37.098Z,81.50
2018-04-08T20:30:05.232Z,81.90
2018-04-08T20:32:33.388Z,82.20
2018-04-08T20:35:02.342Z,83.40
2018-04-08T20:37:30.529Z,82.60
2018-04-08T20:39:58.723Z,83.40
2018-04-08T20:42:26.920Z,83.70
2018-04-08T20:44:56.004Z,84.00
2018-04-08T20:47:24.904Z,84.40
2018-04-08T20:49:53.820Z,84.20
2018-04-08T20:52:21.951Z,84.20
2018-04-08T20:54:50.925Z,84.30
2018-04-08T20:57:19.084Z,83.70
2018-04-08T20:59:47.217Z,83.80
2018-04-08T21:02:15.771Z,83.80
2018-04-08T21:04:44.715Z,84.40
2018-04-08T21:07:12.861Z,84.40
2018-04-08T21:09:41.870Z,84.40
2018-04-08T21:12:10.051Z,84.40
2018-04-08T21:14:38.224Z,84.50
2018-04-08T21:17:06.451Z,84.90
2018-04-08T21:19:34.771Z,85.10
2018-04-08T21:22:02.908Z,85.40
2018-04-08T21:24:31.794Z,85.40
2018-04-08T21:27:00.685Z,85.20
2018-04-08T21:29:29.589Z,85.00
2018-04-08T21:31:57.818Z,84.90
2018-04-08T21:34:26.012Z,84.60
2018-04-08T21:36:54.141Z,84.30
2018-04-08T21:39:23.926Z,83.70
2018-04-08T21:41:52.061Z,83.50
2018-04-08T21:44:20.582Z,83.50
2018-04-08T21:46:48.869Z,83.20
2018-04-08T21:49:17.837Z,83.10
2018-04-08T21:51:45.948Z,83.00
2018-04-08T21:54:14.370Z,82.80
2018-04-08T21:56:44.038Z,82.30
2018-04-08T21:59:12.272Z,82.30
2018-04-08T22:01:40.548Z,82.10
2018-04-08T22:04:08.906Z,82.10
2018-04-08T22:06:37.185Z,82.10
2018-04-08T22:09:06.164Z,82.30
2018-04-08T22:11:34.380Z,82.40
2018-04-08T22:14:03.337Z,82.60
2018-04-08T22:16:31.536Z,82.60
2018-04-08T22:18:59.708Z,82.90
2018-04-08T22:21:27.840Z,83.10
2018-04-08T22:23:56.914Z,83.10
2018-04-08T22:26:25.273Z,83.00
2018-04-08T22:28:54.163Z,83.60
2018-04-08T22:31:23.090Z,83.90
2018-04-08T22:33:51.308Z,83.80
2018-04-08T22:36:19.611Z,84.10
2018-04-08T22:38:48.471Z,84.80
2018-04-08T22:41:16.650Z,84.80
2018-04-08T22:43:44.956Z,84.80
2018-04-08T22:46:13.131Z,84.80
2018-04-08T22:48:42.027Z,84.80
2018-04-08T22:51:10.921Z,84.80
2018-04-08T22:53:39.053Z,84.80
2018-04-08T22:56:07.197Z,84.80
2018-04-08T22:58:35.345Z,84.80
2018-04-08T23:01:03.668Z,84.80
2018-04-08T23:03:31.825Z,84.90
2018-04-08T23:06:00.109Z,84.90
2018-04-08T23:08:28.291Z,85.10
2018-04-08T23:11:21.672Z,85.60
2018-04-08T23:13:50.047Z,85.60
2018-04-08T23:16:18.263Z,85.90
2018-04-08T23:18:46.497Z,86.10
2018-04-08T23:21:14.643Z,86.40
2018-04-08T23:23:42.795Z,86.50
2018-04-08T23:26:11.211Z,86.80
2018-04-08T23:28:39.641Z,86.90
2018-04-08T23:31:07.755Z,86.80
2018-04-08T23:33:35.922Z,87.10
2018-04-08T23:36:04.036Z,87.30
2018-04-08T23:38:32.988Z,88.10
2018-04-08T23:41:01.136Z,88.00
2018-04-08T23:43:29.338Z,88.40
2018-04-08T23:45:58.215Z,88.90
2018-04-08T23:48:26.360Z,89.20
2018-04-08T23:50:54.597Z,89.70
2018-04-08T23:53:22.773Z,90.00
2018-04-08T23:55:50.981Z,90.20
2018-04-08T23:58:19.105Z,90.20
